createdAt,value
2022-08-05T00:00:49.947Z,0.00
2022-08-05T00:15:55.756Z,0.00
2022-08-05T00:30:52.143Z,0.00
2022-08-05T00:45:54.287Z,0.00
2022-08-05T01:00:55.344Z,0.00
2022-08-05T01:15:55.617Z,0.00
2022-08-05T01:30:58.737Z,0.00
2022-08-05T01:45:58.884Z,0.00
2022-08-05T02:01:04.077Z,0.00
2022-08-05T02:16:04.322Z,0.00
2022-08-05T02:31:04.491Z,0.00
2022-08-05T02:46:04.576Z,0.00
2022-08-05T03:01:04.813Z,4.00
2022-08-05T03:16:05.417Z,28.00
2022-08-05T03:31:09.605Z,144.00
2022-08-05T03:46:14.709Z,336.00
2022-08-05T04:01:14.957Z,648.00
2022-08-05T04:16:15.020Z,1316.00
2022-08-05T04:31:15.989Z,2100.00
2022-08-05T04:46:28.479Z,2908.00
2022-08-05T05:02:05.782Z,2656.00
2022-08-05T05:16:30.390Z,2456.00
2022-08-05T05:31:35.723Z,3800.00
2022-08-05T05:46:35.622Z,2352.00
2022-08-05T06:01:40.825Z,3128.00
2022-08-05T06:16:45.984Z,5100.00
2022-08-05T06:31:47.164Z,5096.00
2022-08-05T06:46:50.818Z,5952.00
2022-08-05T07:01:53.031Z,6256.00
2022-08-05T07:18:00.755Z,4072.00
2022-08-05T07:31:58.865Z,2236.00
2022-08-05T07:47:07.880Z,1848.00
2022-08-05T08:02:15.306Z,3000.00
2022-08-05T08:17:16.250Z,3764.00
2022-08-05T08:32:27.770Z,3256.00
2022-08-05T08:48:06.980Z,5828.00
2022-08-05T09:02:30.199Z,3608.00
2022-08-05T09:17:42.927Z,7732.00
2022-08-05T09:32:46.045Z,2492.00
2022-08-05T09:47:55.248Z,1972.00
2022-08-05T10:02:45.850Z,4236.00
2022-08-05T10:17:56.818Z,14804.00
2022-08-05T10:33:01.849Z,21376.00
2022-08-05T10:48:31.005Z,17772.00
2022-08-05T11:03:24.234Z,54208.00
2022-08-05T11:18:12.243Z,54784.00
2022-08-05T11:33:20.878Z,60032.00
2022-08-05T11:48:18.298Z,13600.00
2022-08-05T12:03:29.284Z,71584.00
2022-08-05T12:18:27.419Z,80640.00
2022-08-05T12:33:37.200Z,74944.00
2022-08-05T12:48:36.170Z,6276.00
2022-08-05T13:03:41.655Z,8776.00
2022-08-05T13:19:13.739Z,28448.00
2022-08-05T13:34:22.109Z,12156.00
2022-08-05T13:49:23.213Z,11680.00
2022-08-05T14:04:26.761Z,19296.00
2022-08-05T14:19:27.125Z,17728.00
2022-08-05T14:34:29.342Z,4780.00
2022-08-05T14:49:59.704Z,2860.00
2022-08-05T15:04:39.682Z,1864.00
2022-08-05T15:19:48.984Z,2008.00
2022-08-05T15:34:49.651Z,3836.00
2022-08-05T15:49:56.673Z,5020.00
2022-08-05T16:04:56.904Z,6652.00
2022-08-05T16:20:05.242Z,5948.00
2022-08-05T16:35:04.269Z,7984.00
2022-08-05T16:50:06.604Z,4868.00
2022-08-05T17:05:08.881Z,976.00
2022-08-05T17:20:12.217Z,668.00
2022-08-05T17:35:15.678Z,640.00
2022-08-05T17:50:29.005Z,480.00
2022-08-05T18:05:27.969Z,552.00
2022-08-05T18:20:29.316Z,480.00
2022-08-05T18:36:01.197Z,328.00
2022-08-05T18:50:44.845Z,96.00
2022-08-05T19:06:11.945Z,20.00
2022-08-05T19:20:50.682Z,0.00
2022-08-05T19:35:56.724Z,0.00
2022-08-05T19:50:58.018Z,0.00
2022-08-05T20:05:59.122Z,0.00
2022-08-05T20:21:06.796Z,0.00
2022-08-05T20:36:07.379Z,0.00
2022-08-05T20:51:10.559Z,0.00
2022-08-05T21:06:28.555Z,0.00
2022-08-05T21:21:18.854Z,0.00
2022-08-05T21:36:29.883Z,0.00
2022-08-05T21:52:21.710Z,0.00
2022-08-05T22:06:39.783Z,0.00
2022-08-05T22:21:40.596Z,0.00
2022-08-05T22:36:44.644Z,0.00
2022-08-05T22:52:04.911Z,0.00
2022-08-05T23:06:54.994Z,0.00
2022-08-05T23:21:56.992Z,0.00
2022-08-05T23:36:59.328Z,0.00
2022-08-05T23:51:59.979Z,0.00
